<?xml version="1.0" encoding="UTF-8" standalone="no" ?>
<gpx xmlns="http://www.topografix.com/GPX/1/1" xmlns:xsi="http://www.w3.org/2001/XMLSchema-instance" xsi:schemaLocation="http://www.topografix.com/GPX/1/1 http://www.topografix.com/GPX/1/1/gpx.xsd" version="1.1" creator="VisuGPX - https://www.visugpx.com">
  <metadata>
    <name>MN Bois de la Flachère</name>
  </metadata>
  <trk>
    <name><![CDATA[MN Bois de la Flachère_1]]></name>
    <trkseg>
      <trkpt lat="45.90585" lon="4.57529">
        <ele>244.60543823242</ele>
        <time>2020-11-27T08:59:22.261Z</time>
      </trkpt>
      <trkpt lat="45.90651" lon="4.5691">
        <ele>289.02484130859</ele>
        <time>2020-11-27T08:59:24.352Z</time>
      </trkpt>
      <trkpt lat="45.90647" lon="4.56883">
        <ele>289.14709472656</ele>
        <time>2020-11-27T08:59:26.447Z</time>
      </trkpt>
      <trkpt lat="45.90654" lon="4.56889">
        <ele>289.40686035156</ele>
        <time>2020-11-27T08:59:28.544Z</time>
      </trkpt>
      <trkpt lat="45.90659" lon="4.56898">
        <ele>289.53427124023</ele>
        <time>2020-11-27T08:59:30.642Z</time>
      </trkpt>
      <trkpt lat="45.90663" lon="4.56898">
        <ele>289.72290039062</ele>
        <time>2020-11-27T08:59:32.741Z</time>
      </trkpt>
      <trkpt lat="45.90676" lon="4.56893">
        <ele>290.53207397461</ele>
        <time>2020-11-27T08:59:34.843Z</time>
      </trkpt>
      <trkpt lat="45.90688" lon="4.56886">
        <ele>291.45184326172</ele>
        <time>2020-11-27T08:59:36.948Z</time>
      </trkpt>
      <trkpt lat="45.90702" lon="4.56877">
        <ele>292.51486206055</ele>
        <time>2020-11-27T08:59:39.056Z</time>
      </trkpt>
      <trkpt lat="45.90707" lon="4.56898">
        <ele>292.29373168945</ele>
        <time>2020-11-27T08:59:41.167Z</time>
      </trkpt>
      <trkpt lat="45.90713" lon="4.56895">
        <ele>292.69674682617</ele>
        <time>2020-11-27T08:59:43.279Z</time>
      </trkpt>
      <trkpt lat="45.90727" lon="4.56886">
        <ele>293.41799926758</ele>
        <time>2020-11-27T08:59:45.394Z</time>
      </trkpt>
      <trkpt lat="45.90733" lon="4.56882">
        <ele>293.21292114258</ele>
        <time>2020-11-27T08:59:47.510Z</time>
      </trkpt>
      <trkpt lat="45.90747" lon="4.56883">
        <ele>292.63818359375</ele>
        <time>2020-11-27T08:59:49.629Z</time>
      </trkpt>
      <trkpt lat="45.90774" lon="4.56872">
        <ele>292.01620483398</ele>
        <time>2020-11-27T08:59:51.754Z</time>
      </trkpt>
      <trkpt lat="45.90785" lon="4.56867">
        <ele>291.78616333008</ele>
        <time>2020-11-27T08:59:53.881Z</time>
      </trkpt>
      <trkpt lat="45.90807" lon="4.56838">
        <ele>291.369140625</ele>
        <time>2020-11-27T08:59:56.014Z</time>
      </trkpt>
      <trkpt lat="45.90839" lon="4.56837">
        <ele>292.15093994141</ele>
        <time>2020-11-27T08:59:58.154Z</time>
      </trkpt>
      <trkpt lat="45.90855" lon="4.56852">
        <ele>292.35104370117</ele>
        <time>2020-11-27T09:00:00.297Z</time>
      </trkpt>
      <trkpt lat="45.90871" lon="4.56856">
        <ele>292.67602539062</ele>
        <time>2020-11-27T09:00:02.444Z</time>
      </trkpt>
      <trkpt lat="45.9088" lon="4.56858">
        <ele>292.87692260742</ele>
        <time>2020-11-27T09:00:04.592Z</time>
      </trkpt>
      <trkpt lat="45.90902" lon="4.5685">
        <ele>291.23617553711</ele>
        <time>2020-11-27T09:00:06.745Z</time>
      </trkpt>
      <trkpt lat="45.90937" lon="4.56833">
        <ele>286.19989013672</ele>
        <time>2020-11-27T09:00:08.905Z</time>
      </trkpt>
      <trkpt lat="45.9096" lon="4.56815">
        <ele>285.81072998047</ele>
        <time>2020-11-27T09:00:11.071Z</time>
      </trkpt>
      <trkpt lat="45.90968" lon="4.56786">
        <ele>287.29943847656</ele>
        <time>2020-11-27T09:00:13.241Z</time>
      </trkpt>
      <trkpt lat="45.90974" lon="4.56736">
        <ele>289.32696533203</ele>
        <time>2020-11-27T09:00:15.418Z</time>
      </trkpt>
      <trkpt lat="45.90991" lon="4.56652">
        <ele>291.16165161133</ele>
        <time>2020-11-27T09:00:17.607Z</time>
      </trkpt>
      <trkpt lat="45.90995" lon="4.56634">
        <ele>291.43515014648</ele>
        <time>2020-11-27T09:00:19.799Z</time>
      </trkpt>
      <trkpt lat="45.91005" lon="4.56595">
        <ele>292.12652587891</ele>
        <time>2020-11-27T09:00:21.997Z</time>
      </trkpt>
      <trkpt lat="45.91006" lon="4.56557">
        <ele>292.91448974609</ele>
        <time>2020-11-27T09:00:24.200Z</time>
      </trkpt>
      <trkpt lat="45.91004" lon="4.56518">
        <ele>294</ele>
        <time>2020-11-27T09:00:26.408Z</time>
      </trkpt>
      <trkpt lat="45.90999" lon="4.56482">
        <ele>294</ele>
        <time>2020-11-27T09:00:28.622Z</time>
      </trkpt>
      <trkpt lat="45.90997" lon="4.56458">
        <ele>294.94653320312</ele>
        <time>2020-11-27T09:00:30.839Z</time>
      </trkpt>
      <trkpt lat="45.90994" lon="4.56435">
        <ele>295.59869384766</ele>
        <time>2020-11-27T09:00:33.059Z</time>
      </trkpt>
      <trkpt lat="45.90987" lon="4.56418">
        <ele>295.58856201172</ele>
        <time>2020-11-27T09:00:35.282Z</time>
      </trkpt>
      <trkpt lat="45.90981" lon="4.56387">
        <ele>295.98526000977</ele>
        <time>2020-11-27T09:00:37.509Z</time>
      </trkpt>
      <trkpt lat="45.9099" lon="4.56329">
        <ele>298.38159179688</ele>
        <time>2020-11-27T09:00:39.745Z</time>
      </trkpt>
      <trkpt lat="45.91" lon="4.56292">
        <ele>299.86111450195</ele>
        <time>2020-11-27T09:00:41.986Z</time>
      </trkpt>
      <trkpt lat="45.91006" lon="4.56279">
        <ele>300.42669677734</ele>
        <time>2020-11-27T09:00:44.229Z</time>
      </trkpt>
      <trkpt lat="45.91008" lon="4.5628">
        <ele>300.45068359375</ele>
        <time>2020-11-27T09:00:46.473Z</time>
      </trkpt>
      <trkpt lat="45.9101" lon="4.56298">
        <ele>300.14904785156</ele>
        <time>2020-11-27T09:00:48.719Z</time>
      </trkpt>
      <trkpt lat="45.91012" lon="4.56365">
        <ele>298.40560913086</ele>
        <time>2020-11-27T09:00:50.975Z</time>
      </trkpt>
      <trkpt lat="45.9102" lon="4.56451">
        <ele>296.78915405273</ele>
        <time>2020-11-27T09:00:53.243Z</time>
      </trkpt>
      <trkpt lat="45.91029" lon="4.56486">
        <ele>295.23208618164</ele>
        <time>2020-11-27T09:00:55.516Z</time>
      </trkpt>
      <trkpt lat="45.91057" lon="4.5655">
        <ele>293.2607421875</ele>
        <time>2020-11-27T09:00:57.800Z</time>
      </trkpt>
      <trkpt lat="45.91062" lon="4.56569">
        <ele>292.70883178711</ele>
        <time>2020-11-27T09:01:00.087Z</time>
      </trkpt>
      <trkpt lat="45.91067" lon="4.5661">
        <ele>291.10110473633</ele>
        <time>2020-11-27T09:01:02.379Z</time>
      </trkpt>
      <trkpt lat="45.91083" lon="4.56667">
        <ele>290.77075195312</ele>
        <time>2020-11-27T09:01:04.680Z</time>
      </trkpt>
      <trkpt lat="45.91093" lon="4.56719">
        <ele>290.11868286133</ele>
        <time>2020-11-27T09:01:06.988Z</time>
      </trkpt>
      <trkpt lat="45.91101" lon="4.56734">
        <ele>290.89855957031</ele>
        <time>2020-11-27T09:01:09.299Z</time>
      </trkpt>
      <trkpt lat="45.91111" lon="4.56764">
        <ele>291.73840332031</ele>
        <time>2020-11-27T09:01:11.615Z</time>
      </trkpt>
      <trkpt lat="45.91118" lon="4.56805">
        <ele>291.34713745117</ele>
        <time>2020-11-27T09:01:13.937Z</time>
      </trkpt>
      <trkpt lat="45.91118" lon="4.56861">
        <ele>288.28958129883</ele>
        <time>2020-11-27T09:01:16.266Z</time>
      </trkpt>
      <trkpt lat="45.91127" lon="4.56881">
        <ele>287.35433959961</ele>
        <time>2020-11-27T09:01:18.599Z</time>
      </trkpt>
      <trkpt lat="45.91134" lon="4.56887">
        <ele>287.5703125</ele>
        <time>2020-11-27T09:01:20.933Z</time>
      </trkpt>
      <trkpt lat="45.91151" lon="4.5689">
        <ele>288.20068359375</ele>
        <time>2020-11-27T09:01:23.271Z</time>
      </trkpt>
      <trkpt lat="45.91176" lon="4.56903">
        <ele>286.79187011719</ele>
        <time>2020-11-27T09:01:25.614Z</time>
      </trkpt>
      <trkpt lat="45.91191" lon="4.56905">
        <ele>286.86386108398</ele>
        <time>2020-11-27T09:01:27.960Z</time>
      </trkpt>
      <trkpt lat="45.91211" lon="4.56906">
        <ele>287.19979858398</ele>
        <time>2020-11-27T09:01:30.310Z</time>
      </trkpt>
      <trkpt lat="45.91231" lon="4.56897">
        <ele>288.65325927734</ele>
        <time>2020-11-27T09:01:32.664Z</time>
      </trkpt>
      <trkpt lat="45.91244" lon="4.56893">
        <ele>289.08221435547</ele>
        <time>2020-11-27T09:01:35.021Z</time>
      </trkpt>
      <trkpt lat="45.91276" lon="4.56862">
        <ele>294.65963745117</ele>
        <time>2020-11-27T09:01:37.386Z</time>
      </trkpt>
      <trkpt lat="45.91304" lon="4.56803">
        <ele>297.36318969727</ele>
        <time>2020-11-27T09:01:39.761Z</time>
      </trkpt>
      <trkpt lat="45.91322" lon="4.56744">
        <ele>296.80294799805</ele>
        <time>2020-11-27T09:01:42.145Z</time>
      </trkpt>
      <trkpt lat="45.91324" lon="4.56732">
        <ele>296.80337524414</ele>
        <time>2020-11-27T09:01:44.530Z</time>
      </trkpt>
      <trkpt lat="45.91334" lon="4.5667">
        <ele>297.79272460938</ele>
        <time>2020-11-27T09:01:46.924Z</time>
      </trkpt>
      <trkpt lat="45.91334" lon="4.56611">
        <ele>299.85565185547</ele>
        <time>2020-11-27T09:01:49.327Z</time>
      </trkpt>
      <trkpt lat="45.91325" lon="4.56561">
        <ele>299.30349731445</ele>
        <time>2020-11-27T09:01:51.737Z</time>
      </trkpt>
      <trkpt lat="45.91314" lon="4.56544">
        <ele>299.71069335938</ele>
        <time>2020-11-27T09:01:54.150Z</time>
      </trkpt>
      <trkpt lat="45.91327" lon="4.56524">
        <ele>299.26806640625</ele>
        <time>2020-11-27T09:01:56.567Z</time>
      </trkpt>
      <trkpt lat="45.91342" lon="4.56511">
        <ele>298.72988891602</ele>
        <time>2020-11-27T09:01:58.987Z</time>
      </trkpt>
      <trkpt lat="45.91353" lon="4.56502">
        <ele>298.34121704102</ele>
        <time>2020-11-27T09:02:01.410Z</time>
      </trkpt>
      <trkpt lat="45.91381" lon="4.56484">
        <ele>296.35748291016</ele>
        <time>2020-11-27T09:02:03.839Z</time>
      </trkpt>
      <trkpt lat="45.91422" lon="4.56471">
        <ele>293.16091918945</ele>
        <time>2020-11-27T09:02:06.276Z</time>
      </trkpt>
      <trkpt lat="45.91429" lon="4.56465">
        <ele>292.12176513672</ele>
        <time>2020-11-27T09:02:08.715Z</time>
      </trkpt>
      <trkpt lat="45.91427" lon="4.56451">
        <ele>291.46499633789</ele>
        <time>2020-11-27T09:02:11.156Z</time>
      </trkpt>
      <trkpt lat="45.91419" lon="4.56437">
        <ele>291.38064575195</ele>
        <time>2020-11-27T09:02:13.600Z</time>
      </trkpt>
      <trkpt lat="45.91396" lon="4.56412">
        <ele>292.05697631836</ele>
        <time>2020-11-27T09:02:16.049Z</time>
      </trkpt>
      <trkpt lat="45.91384" lon="4.5639">
        <ele>291.9548034668</ele>
        <time>2020-11-27T09:02:18.502Z</time>
      </trkpt>
      <trkpt lat="45.91373" lon="4.56355">
        <ele>292.36285400391</ele>
        <time>2020-11-27T09:02:20.961Z</time>
      </trkpt>
      <trkpt lat="45.91349" lon="4.56286">
        <ele>297.36346435547</ele>
        <time>2020-11-27T09:02:23.430Z</time>
      </trkpt>
      <trkpt lat="45.91329" lon="4.56205">
        <ele>304.08474731445</ele>
        <time>2020-11-27T09:02:25.911Z</time>
      </trkpt>
      <trkpt lat="45.9131" lon="4.56117">
        <ele>308.99481201172</ele>
        <time>2020-11-27T09:02:28.405Z</time>
      </trkpt>
      <trkpt lat="45.91305" lon="4.56064">
        <ele>315.5104675293</ele>
        <time>2020-11-27T09:02:30.907Z</time>
      </trkpt>
      <trkpt lat="45.91309" lon="4.56023">
        <ele>319.50592041016</ele>
        <time>2020-11-27T09:02:33.415Z</time>
      </trkpt>
      <trkpt lat="45.91316" lon="4.55985">
        <ele>321.19763183594</ele>
        <time>2020-11-27T09:02:35.928Z</time>
      </trkpt>
      <trkpt lat="45.91317" lon="4.55961">
        <ele>322.55578613281</ele>
        <time>2020-11-27T09:02:38.444Z</time>
      </trkpt>
      <trkpt lat="45.91318" lon="4.55922">
        <ele>324.85983276367</ele>
        <time>2020-11-27T09:02:40.966Z</time>
      </trkpt>
      <trkpt lat="45.91315" lon="4.55888">
        <ele>326.64849853516</ele>
        <time>2020-11-27T09:02:43.493Z</time>
      </trkpt>
      <trkpt lat="45.91315" lon="4.55887">
        <ele>326.68353271484</ele>
        <time>2020-11-27T09:02:46.020Z</time>
      </trkpt>
      <trkpt lat="45.91317" lon="4.55849">
        <ele>328.85861206055</ele>
        <time>2020-11-27T09:02:48.552Z</time>
      </trkpt>
      <trkpt lat="45.9131" lon="4.55809">
        <ele>332.07406616211</ele>
        <time>2020-11-27T09:02:51.090Z</time>
      </trkpt>
      <trkpt lat="45.91313" lon="4.55769">
        <ele>335.43310546875</ele>
        <time>2020-11-27T09:02:53.633Z</time>
      </trkpt>
      <trkpt lat="45.91339" lon="4.55719">
        <ele>339.72808837891</ele>
        <time>2020-11-27T09:02:56.185Z</time>
      </trkpt>
      <trkpt lat="45.91354" lon="4.55698">
        <ele>340.98849487305</ele>
        <time>2020-11-27T09:02:58.741Z</time>
      </trkpt>
      <trkpt lat="45.91386" lon="4.55663">
        <ele>343.60440063477</ele>
        <time>2020-11-27T09:03:01.305Z</time>
      </trkpt>
      <trkpt lat="45.91411" lon="4.55647">
        <ele>344.22940063477</ele>
        <time>2020-11-27T09:03:03.875Z</time>
      </trkpt>
      <trkpt lat="45.9142" lon="4.55644">
        <ele>343.96951293945</ele>
        <time>2020-11-27T09:03:06.447Z</time>
      </trkpt>
      <trkpt lat="45.91516" lon="4.5563">
        <ele>340.89651489258</ele>
        <time>2020-11-27T09:03:09.038Z</time>
      </trkpt>
      <trkpt lat="45.91553" lon="4.55623">
        <ele>340.78854370117</ele>
        <time>2020-11-27T09:03:11.637Z</time>
      </trkpt>
      <trkpt lat="45.91576" lon="4.55615">
        <ele>340.95895385742</ele>
        <time>2020-11-27T09:03:14.240Z</time>
      </trkpt>
      <trkpt lat="45.91603" lon="4.556">
        <ele>341.71484375</ele>
        <time>2020-11-27T09:03:16.849Z</time>
      </trkpt>
      <trkpt lat="45.91618" lon="4.55586">
        <ele>341.98550415039</ele>
        <time>2020-11-27T09:03:19.462Z</time>
      </trkpt>
      <trkpt lat="45.91627" lon="4.55571">
        <ele>341.517578125</ele>
        <time>2020-11-27T09:03:22.077Z</time>
      </trkpt>
      <trkpt lat="45.91631" lon="4.55549">
        <ele>341.49359130859</ele>
        <time>2020-11-27T09:03:24.696Z</time>
      </trkpt>
      <trkpt lat="45.91631" lon="4.55534">
        <ele>341.6796875</ele>
        <time>2020-11-27T09:03:27.317Z</time>
      </trkpt>
      <trkpt lat="45.91622" lon="4.55503">
        <ele>343.13284301758</ele>
        <time>2020-11-27T09:03:29.942Z</time>
      </trkpt>
      <trkpt lat="45.91578" lon="4.55457">
        <ele>347.89556884766</ele>
        <time>2020-11-27T09:03:32.578Z</time>
      </trkpt>
      <trkpt lat="45.91575" lon="4.55455">
        <ele>348.17465209961</ele>
        <time>2020-11-27T09:03:35.215Z</time>
      </trkpt>
      <trkpt lat="45.91548" lon="4.55397">
        <ele>353.26626586914</ele>
        <time>2020-11-27T09:03:37.862Z</time>
      </trkpt>
      <trkpt lat="45.91531" lon="4.55381">
        <ele>356.26278686523</ele>
        <time>2020-11-27T09:03:40.513Z</time>
      </trkpt>
      <trkpt lat="45.91515" lon="4.55353">
        <ele>361.23504638672</ele>
        <time>2020-11-27T09:03:43.169Z</time>
      </trkpt>
      <trkpt lat="45.91515" lon="4.55342">
        <ele>362.78997802734</ele>
        <time>2020-11-27T09:03:45.826Z</time>
      </trkpt>
      <trkpt lat="45.91531" lon="4.55306">
        <ele>362.94738769531</ele>
        <time>2020-11-27T09:03:48.489Z</time>
      </trkpt>
      <trkpt lat="45.91549" lon="4.55276">
        <ele>361.03555297852</ele>
        <time>2020-11-27T09:03:51.158Z</time>
      </trkpt>
      <trkpt lat="45.9155" lon="4.55275">
        <ele>361.05230712891</ele>
        <time>2020-11-27T09:03:53.827Z</time>
      </trkpt>
      <trkpt lat="45.91566" lon="4.55235">
        <ele>361.67221069336</ele>
        <time>2020-11-27T09:03:56.503Z</time>
      </trkpt>
      <trkpt lat="45.91577" lon="4.55189">
        <ele>362.47988891602</ele>
        <time>2020-11-27T09:03:59.185Z</time>
      </trkpt>
      <trkpt lat="45.91587" lon="4.55155">
        <ele>361.18170166016</ele>
        <time>2020-11-27T09:04:01.872Z</time>
      </trkpt>
      <trkpt lat="45.91574" lon="4.55038">
        <ele>370.15902709961</ele>
        <time>2020-11-27T09:04:04.576Z</time>
      </trkpt>
      <trkpt lat="45.9157" lon="4.55008">
        <ele>371.70254516602</ele>
        <time>2020-11-27T09:04:07.284Z</time>
      </trkpt>
      <trkpt lat="45.91557" lon="4.54905">
        <ele>375.9924621582</ele>
        <time>2020-11-27T09:04:10.007Z</time>
      </trkpt>
      <trkpt lat="45.9155" lon="4.54872">
        <ele>376.41793823242</ele>
        <time>2020-11-27T09:04:12.735Z</time>
      </trkpt>
      <trkpt lat="45.91545" lon="4.54853">
        <ele>376.26403808594</ele>
        <time>2020-11-27T09:04:15.465Z</time>
      </trkpt>
      <trkpt lat="45.91524" lon="4.54798">
        <ele>378.1477355957</ele>
        <time>2020-11-27T09:04:18.204Z</time>
      </trkpt>
      <trkpt lat="45.91505" lon="4.54732">
        <ele>379.38235473633</ele>
        <time>2020-11-27T09:04:20.953Z</time>
      </trkpt>
      <trkpt lat="45.91462" lon="4.54601">
        <ele>374.28332519531</ele>
        <time>2020-11-27T09:04:23.722Z</time>
      </trkpt>
      <trkpt lat="45.91444" lon="4.54508">
        <ele>365.21282958984</ele>
        <time>2020-11-27T09:04:26.505Z</time>
      </trkpt>
      <trkpt lat="45.91433" lon="4.54468">
        <ele>359.65927124023</ele>
        <time>2020-11-27T09:04:29.294Z</time>
      </trkpt>
      <trkpt lat="45.91429" lon="4.54435">
        <ele>356.30828857422</ele>
        <time>2020-11-27T09:04:32.088Z</time>
      </trkpt>
      <trkpt lat="45.91431" lon="4.54396">
        <ele>353.40948486328</ele>
        <time>2020-11-27T09:04:34.887Z</time>
      </trkpt>
      <trkpt lat="45.91452" lon="4.54309">
        <ele>346.71878051758</ele>
        <time>2020-11-27T09:04:37.699Z</time>
      </trkpt>
      <trkpt lat="45.91466" lon="4.54262">
        <ele>344.12890625</ele>
        <time>2020-11-27T09:04:40.518Z</time>
      </trkpt>
      <trkpt lat="45.91466" lon="4.54253">
        <ele>343.58898925781</ele>
        <time>2020-11-27T09:04:43.338Z</time>
      </trkpt>
      <trkpt lat="45.91455" lon="4.54222">
        <ele>340.93743896484</ele>
        <time>2020-11-27T09:04:46.163Z</time>
      </trkpt>
      <trkpt lat="45.91374" lon="4.54285">
        <ele>341.89721679688</ele>
        <time>2020-11-27T09:04:49.007Z</time>
      </trkpt>
      <trkpt lat="45.91354" lon="4.54303">
        <ele>341.75323486328</ele>
        <time>2020-11-27T09:04:51.855Z</time>
      </trkpt>
      <trkpt lat="45.91335" lon="4.54327">
        <ele>341.75616455078</ele>
        <time>2020-11-27T09:04:54.708Z</time>
      </trkpt>
      <trkpt lat="45.91264" lon="4.54465">
        <ele>341.22024536133</ele>
        <time>2020-11-27T09:04:57.585Z</time>
      </trkpt>
      <trkpt lat="45.91264" lon="4.54465">
        <ele>341.22039794922</ele>
        <time>2020-11-27T09:05:00.462Z</time>
      </trkpt>
      <trkpt lat="45.91243" lon="4.54524">
        <ele>341.84609985352</ele>
        <time>2020-11-27T09:05:03.349Z</time>
      </trkpt>
      <trkpt lat="45.91217" lon="4.54613">
        <ele>341.84005737305</ele>
        <time>2020-11-27T09:05:06.249Z</time>
      </trkpt>
      <trkpt lat="45.912" lon="4.54656">
        <ele>340.53073120117</ele>
        <time>2020-11-27T09:05:09.156Z</time>
      </trkpt>
      <trkpt lat="45.91159" lon="4.54734">
        <ele>338.17053222656</ele>
        <time>2020-11-27T09:05:12.077Z</time>
      </trkpt>
      <trkpt lat="45.91125" lon="4.5479">
        <ele>338.32614135742</ele>
        <time>2020-11-27T09:05:15.008Z</time>
      </trkpt>
      <trkpt lat="45.9107" lon="4.54869">
        <ele>338.36859130859</ele>
        <time>2020-11-27T09:05:17.955Z</time>
      </trkpt>
      <trkpt lat="45.91047" lon="4.54917">
        <ele>339.85354614258</ele>
        <time>2020-11-27T09:05:20.910Z</time>
      </trkpt>
      <trkpt lat="45.91029" lon="4.54991">
        <ele>343.55035400391</ele>
        <time>2020-11-27T09:05:23.876Z</time>
      </trkpt>
      <trkpt lat="45.91004" lon="4.55139">
        <ele>347.4704284668</ele>
        <time>2020-11-27T09:05:26.863Z</time>
      </trkpt>
      <trkpt lat="45.90982" lon="4.55228">
        <ele>345.68991088867</ele>
        <time>2020-11-27T09:05:29.863Z</time>
      </trkpt>
      <trkpt lat="45.90981" lon="4.55267">
        <ele>345.10202026367</ele>
        <time>2020-11-27T09:05:32.869Z</time>
      </trkpt>
      <trkpt lat="45.90988" lon="4.55288">
        <ele>345.55361938477</ele>
        <time>2020-11-27T09:05:35.878Z</time>
      </trkpt>
      <trkpt lat="45.90999" lon="4.55308">
        <ele>345.91354370117</ele>
        <time>2020-11-27T09:05:38.890Z</time>
      </trkpt>
      <trkpt lat="45.91006" lon="4.55335">
        <ele>346.55682373047</ele>
        <time>2020-11-27T09:05:41.906Z</time>
      </trkpt>
      <trkpt lat="45.90997" lon="4.55351">
        <ele>346.20889282227</ele>
        <time>2020-11-27T09:05:44.925Z</time>
      </trkpt>
      <trkpt lat="45.90902" lon="4.55421">
        <ele>340.78179931641</ele>
        <time>2020-11-27T09:05:47.966Z</time>
      </trkpt>
      <trkpt lat="45.90904" lon="4.55461">
        <ele>340.86560058594</ele>
        <time>2020-11-27T09:05:51.012Z</time>
      </trkpt>
      <trkpt lat="45.90903" lon="4.55506">
        <ele>338.58749389648</ele>
        <time>2020-11-27T09:05:54.064Z</time>
      </trkpt>
      <trkpt lat="45.9089" lon="4.55575">
        <ele>338.00454711914</ele>
        <time>2020-11-27T09:05:57.126Z</time>
      </trkpt>
      <trkpt lat="45.9088" lon="4.55606">
        <ele>338.24450683594</ele>
        <time>2020-11-27T09:06:00.193Z</time>
      </trkpt>
      <trkpt lat="45.90867" lon="4.55639">
        <ele>338.021484375</ele>
        <time>2020-11-27T09:06:03.266Z</time>
      </trkpt>
      <trkpt lat="45.90829" lon="4.5571">
        <ele>338.03393554688</ele>
        <time>2020-11-27T09:06:06.351Z</time>
      </trkpt>
      <trkpt lat="45.90769" lon="4.55784">
        <ele>339.09906005859</ele>
        <time>2020-11-27T09:06:09.452Z</time>
      </trkpt>
      <trkpt lat="45.90756" lon="4.55814">
        <ele>336.99807739258</ele>
        <time>2020-11-27T09:06:12.558Z</time>
      </trkpt>
      <trkpt lat="45.90721" lon="4.55915">
        <ele>334.28939819336</ele>
        <time>2020-11-27T09:06:15.680Z</time>
      </trkpt>
      <trkpt lat="45.90711" lon="4.55955">
        <ele>333.39047241211</ele>
        <time>2020-11-27T09:06:18.807Z</time>
      </trkpt>
      <trkpt lat="45.90702" lon="4.56025">
        <ele>333.31967163086</ele>
        <time>2020-11-27T09:06:21.944Z</time>
      </trkpt>
      <trkpt lat="45.90688" lon="4.56098">
        <ele>333.24411010742</ele>
        <time>2020-11-27T09:06:25.092Z</time>
      </trkpt>
      <trkpt lat="45.9068" lon="4.56125">
        <ele>333.25686645508</ele>
        <time>2020-11-27T09:06:28.244Z</time>
      </trkpt>
      <trkpt lat="45.90673" lon="4.56147">
        <ele>332.50564575195</ele>
        <time>2020-11-27T09:06:31.399Z</time>
      </trkpt>
      <trkpt lat="45.9062" lon="4.56234">
        <ele>332.18179321289</ele>
        <time>2020-11-27T09:06:34.571Z</time>
      </trkpt>
      <trkpt lat="45.90567" lon="4.56311">
        <ele>327.33462524414</ele>
        <time>2020-11-27T09:06:37.758Z</time>
      </trkpt>
      <trkpt lat="45.90551" lon="4.56343">
        <ele>325.09121704102</ele>
        <time>2020-11-27T09:06:40.950Z</time>
      </trkpt>
      <trkpt lat="45.90538" lon="4.56368">
        <ele>322.99005126953</ele>
        <time>2020-11-27T09:06:44.146Z</time>
      </trkpt>
      <trkpt lat="45.90538" lon="4.56423">
        <ele>316.39715576172</ele>
        <time>2020-11-27T09:06:47.350Z</time>
      </trkpt>
      <trkpt lat="45.90549" lon="4.56457">
        <ele>313.05654907227</ele>
        <time>2020-11-27T09:06:50.559Z</time>
      </trkpt>
      <trkpt lat="45.90584" lon="4.56532">
        <ele>305.50765991211</ele>
        <time>2020-11-27T09:06:53.781Z</time>
      </trkpt>
      <trkpt lat="45.90593" lon="4.56549">
        <ele>304.50772094727</ele>
        <time>2020-11-27T09:06:57.006Z</time>
      </trkpt>
      <trkpt lat="45.90606" lon="4.56574">
        <ele>303.29391479492</ele>
        <time>2020-11-27T09:07:00.235Z</time>
      </trkpt>
      <trkpt lat="45.90627" lon="4.56644">
        <ele>299.81359863281</ele>
        <time>2020-11-27T09:07:03.475Z</time>
      </trkpt>
      <trkpt lat="45.90638" lon="4.56761">
        <ele>294.20635986328</ele>
        <time>2020-11-27T09:07:06.731Z</time>
      </trkpt>
      <trkpt lat="45.90647" lon="4.56883">
        <ele>289.14709472656</ele>
        <time>2020-11-27T09:07:10.005Z</time>
      </trkpt>
      <trkpt lat="45.90651" lon="4.5691">
        <ele>289.02484130859</ele>
        <time>2020-11-27T09:07:13.282Z</time>
      </trkpt>
      <trkpt lat="45.90655" lon="4.56955">
        <ele>288.24905395508</ele>
        <time>2020-11-27T09:07:16.566Z</time>
      </trkpt>
      <trkpt lat="45.90659" lon="4.56995">
        <ele>286.27606201172</ele>
        <time>2020-11-27T09:07:19.855Z</time>
      </trkpt>
      <trkpt lat="45.90642" lon="4.5707">
        <ele>283.58169555664</ele>
        <time>2020-11-27T09:07:23.155Z</time>
      </trkpt>
      <trkpt lat="45.90644" lon="4.57118">
        <ele>280.36715698242</ele>
        <time>2020-11-27T09:07:26.462Z</time>
      </trkpt>
      <trkpt lat="45.90653" lon="4.57203">
        <ele>267.62200927734</ele>
        <time>2020-11-27T09:07:29.781Z</time>
      </trkpt>
      <trkpt lat="45.90652" lon="4.57213">
        <ele>267.06442260742</ele>
        <time>2020-11-27T09:07:33.101Z</time>
      </trkpt>
      <trkpt lat="45.90642" lon="4.5724">
        <ele>264.17633056641</ele>
        <time>2020-11-27T09:07:36.426Z</time>
      </trkpt>
      <trkpt lat="45.90632" lon="4.57245">
        <ele>262.92233276367</ele>
        <time>2020-11-27T09:07:39.753Z</time>
      </trkpt>
      <trkpt lat="45.90614" lon="4.57238">
        <ele>262.60232543945</ele>
        <time>2020-11-27T09:07:43.084Z</time>
      </trkpt>
    </trkseg>
  </trk>
</gpx>